createdAt,value
2022-09-04T00:01:03.460Z,0.60
2022-09-04T00:04:12.957Z,0.70
2022-09-04T00:07:19.379Z,0.50
2022-09-04T00:10:29.737Z,0.52
2022-09-04T00:13:34.379Z,0.60
2022-09-04T00:16:42.962Z,0.55
2022-09-04T00:19:50.612Z,0.65
2022-09-04T00:22:58.302Z,0.60
2022-09-04T00:26:03.957Z,0.80
2022-09-04T00:29:16.788Z,0.65
2022-09-04T00:32:24.771Z,0.70
2022-09-04T00:35:31.338Z,0.60
2022-09-04T00:38:39.122Z,0.50
2022-09-04T00:41:53.075Z,0.60
2022-09-04T00:45:04.308Z,0.50
2022-09-04T00:48:14.036Z,0.45
2022-09-04T00:51:23.348Z,0.52
2022-09-04T00:54:35.962Z,0.70
2022-09-04T00:57:51.634Z,0.63
2022-09-04T01:00:56.888Z,0.40
2022-09-04T01:04:19.372Z,0.47
2022-09-04T01:07:31.152Z,0.60
2022-09-04T01:10:41.750Z,0.70
2022-09-04T01:13:46.501Z,0.80
2022-09-04T01:16:52.028Z,0.65
2022-09-04T01:19:57.279Z,0.60
2022-09-04T01:23:11.535Z,0.60
2022-09-04T01:26:20.232Z,0.60
2022-09-04T01:29:36.965Z,0.55
2022-09-04T01:32:45.014Z,0.52
2022-09-04T01:35:54.970Z,0.60
2022-09-04T01:38:59.491Z,0.90
2022-09-04T01:42:06.160Z,0.70
2022-09-04T01:45:09.155Z,0.80
2022-09-04T01:48:14.444Z,0.60
2022-09-04T01:51:21.838Z,0.77
2022-09-04T01:54:35.085Z,0.60
2022-09-04T01:57:47.123Z,0.60
2022-09-04T02:00:54.157Z,0.73
2022-09-04T02:04:04.074Z,0.50
2022-09-04T02:07:12.153Z,0.55
2022-09-04T02:10:25.260Z,0.77
2022-09-04T02:13:34.098Z,0.82
2022-09-04T02:16:48.153Z,0.60
2022-09-04T02:20:04.109Z,0.55
2022-09-04T02:23:11.923Z,0.70
2022-09-04T02:26:17.783Z,0.75
2022-09-04T02:29:33.423Z,0.90
2022-09-04T02:32:39.915Z,0.60
2022-09-04T02:35:46.922Z,0.68
2022-09-04T02:38:54.623Z,0.50
2022-09-04T02:42:03.678Z,0.63
2022-09-04T02:45:13.849Z,0.60
2022-09-04T02:48:21.049Z,0.77
2022-09-04T02:51:29.425Z,0.70
2022-09-04T02:54:41.822Z,0.77
2022-09-04T02:57:55.070Z,0.90
2022-09-04T03:01:04.881Z,1.08
2022-09-04T03:04:11.710Z,0.60
2022-09-04T03:07:15.613Z,0.60
2022-09-04T03:10:19.305Z,0.60
2022-09-04T03:13:26.221Z,0.68
2022-09-04T03:16:35.067Z,0.65
2022-09-04T03:19:41.728Z,0.50
2022-09-04T03:22:48.631Z,0.73
2022-09-04T03:25:58.475Z,0.80
2022-09-04T03:37:52.705Z,1.00
2022-09-04T03:41:11.082Z,0.68
2022-09-04T03:49:46.595Z,0.85
2022-09-04T03:53:29.971Z,0.60
2022-09-04T03:56:59.248Z,0.57
2022-09-04T04:00:12.794Z,0.68
2022-09-04T04:03:26.899Z,0.68
2022-09-04T04:06:34.180Z,0.80
2022-09-04T04:09:50.990Z,0.63
2022-09-04T04:13:04.253Z,0.68
2022-09-04T04:16:24.758Z,0.65
2022-09-04T04:19:33.975Z,0.90
2022-09-04T04:22:52.501Z,0.75
2022-09-04T04:26:01.467Z,0.80
2022-09-04T04:29:24.425Z,0.73
2022-09-04T04:32:43.872Z,0.90
2022-09-04T04:35:50.995Z,0.70
2022-09-04T04:39:00.721Z,0.52
2022-09-04T04:42:09.946Z,0.65
2022-09-04T04:45:33.558Z,0.80
2022-09-04T04:48:51.180Z,0.73
2022-09-04T04:52:04.230Z,0.70
2022-09-04T04:55:11.780Z,0.85
2022-09-04T04:58:34.260Z,0.70
2022-09-04T05:01:43.256Z,0.80
2022-09-04T05:04:50.731Z,0.90
2022-09-04T05:08:04.956Z,0.65
2022-09-04T05:11:14.544Z,0.70
2022-09-04T05:14:27.533Z,0.98
2022-09-04T05:17:37.032Z,0.70
2022-09-04T05:20:44.420Z,0.77
2022-09-04T05:23:51.932Z,0.75
2022-09-04T05:26:58.270Z,0.90
2022-09-04T05:30:04.707Z,0.88
2022-09-04T05:33:13.378Z,0.75
2022-09-04T05:36:19.743Z,0.70
2022-09-04T05:39:27.348Z,0.95
2022-09-04T05:42:52.405Z,0.80
2022-09-04T05:45:59.931Z,0.57
2022-09-04T05:49:05.485Z,1.10
2022-09-04T05:52:20.191Z,0.80
2022-09-04T05:55:40.583Z,0.80
2022-09-04T05:58:56.871Z,0.90
2022-09-04T06:02:14.287Z,0.82
2022-09-04T06:05:23.206Z,0.60
2022-09-04T06:08:33.468Z,0.70
2022-09-04T06:11:49.825Z,0.75
2022-09-04T06:15:11.945Z,0.80
2022-09-04T06:18:22.544Z,0.90
2022-09-04T06:21:42.965Z,0.77
2022-09-04T06:25:01.612Z,0.77
2022-09-04T06:28:21.671Z,0.85
2022-09-04T06:31:37.274Z,0.80
2022-09-04T06:34:59.187Z,0.82
2022-09-04T06:38:09.074Z,0.70
2022-09-04T06:41:23.255Z,0.90
2022-09-04T06:44:29.446Z,0.90
2022-09-04T06:47:40.409Z,1.05
2022-09-04T06:50:47.164Z,0.77
2022-09-04T06:53:56.870Z,0.70
2022-09-04T06:57:08.286Z,0.77
2022-09-04T07:00:11.743Z,0.80
2022-09-04T07:03:22.081Z,0.90
2022-09-04T07:06:28.280Z,0.82
2022-09-04T07:09:33.650Z,1.00
2022-09-04T07:12:56.575Z,1.25
2022-09-04T07:16:17.786Z,0.88
2022-09-04T07:19:35.909Z,1.10
2022-09-04T07:22:48.542Z,0.82
2022-09-04T07:26:00.568Z,1.40
2022-09-04T07:29:10.348Z,1.00
2022-09-04T07:32:25.155Z,1.13
2022-09-04T07:35:31.526Z,1.00
2022-09-04T07:38:39.230Z,1.20
2022-09-04T07:41:45.662Z,1.30
2022-09-04T07:44:50.531Z,0.90
2022-09-04T07:47:58.637Z,1.08
2022-09-04T07:51:07.198Z,1.23
2022-09-04T07:54:22.581Z,1.02
2022-09-04T07:57:34.160Z,1.23
2022-09-04T08:00:41.339Z,1.42
2022-09-04T08:04:02.224Z,1.10
2022-09-04T08:07:11.490Z,1.30
2022-09-04T08:10:18.003Z,1.15
2022-09-04T08:13:26.731Z,1.45
2022-09-04T08:16:34.519Z,1.10
2022-09-04T08:19:42.887Z,1.13
2022-09-04T08:22:51.195Z,1.20
2022-09-04T08:26:00.439Z,1.70
2022-09-04T08:29:16.087Z,1.60
2022-09-04T08:32:25.254Z,1.35
2022-09-04T08:35:47.755Z,1.40
2022-09-04T08:38:56.584Z,1.25
2022-09-04T08:42:17.364Z,1.60
2022-09-04T08:45:42.401Z,1.63
2022-09-04T08:49:07.488Z,1.63
2022-09-04T08:52:18.342Z,1.50
2022-09-04T08:55:32.424Z,1.40
2022-09-04T08:58:59.052Z,1.65
2022-09-04T09:02:11.842Z,1.23
2022-09-04T09:05:29.132Z,1.42
2022-09-04T09:09:04.375Z,1.42
2022-09-04T09:12:41.002Z,1.45
2022-09-04T09:15:53.274Z,1.10
2022-09-04T09:19:19.494Z,1.52
2022-09-04T09:22:37.577Z,1.38
2022-09-04T09:25:45.046Z,1.50
2022-09-04T09:29:06.015Z,1.40
2022-09-04T09:32:32.722Z,1.45
2022-09-04T09:35:58.106Z,1.40
2022-09-04T09:39:23.925Z,1.40
2022-09-04T09:42:53.525Z,1.30
2022-09-04T09:46:12.942Z,1.67
2022-09-04T09:49:36.677Z,1.20
2022-09-04T09:52:49.459Z,1.27
2022-09-04T09:56:06.973Z,1.25
2022-09-04T09:59:32.173Z,1.30
2022-09-04T10:02:53.800Z,1.30
2022-09-04T10:06:02.974Z,1.38
2022-09-04T10:09:14.929Z,1.52
2022-09-04T10:12:30.874Z,1.30
2022-09-04T10:15:48.484Z,1.33
2022-09-04T10:19:11.009Z,1.77
2022-09-04T10:22:41.139Z,1.60
2022-09-04T10:25:58.828Z,1.50
2022-09-04T10:29:19.537Z,1.42
2022-09-04T10:32:49.051Z,1.60
2022-09-04T10:36:16.155Z,1.35
2022-09-04T10:39:43.695Z,1.70
2022-09-04T10:43:40.074Z,1.33
2022-09-04T10:47:20.267Z,1.75
2022-09-04T10:59:39.926Z,1.42
2022-09-04T11:03:11.411Z,1.50
2022-09-04T11:06:38.957Z,1.60
2022-09-04T11:09:59.246Z,1.65
2022-09-04T11:13:12.619Z,1.15
2022-09-04T11:16:34.624Z,1.60
2022-09-04T11:19:51.059Z,1.70
2022-09-04T11:23:09.685Z,1.50
2022-09-04T11:26:39.646Z,1.20
2022-09-04T11:29:56.985Z,1.83
2022-09-04T11:33:14.083Z,1.52
2022-09-04T11:36:35.369Z,1.70
2022-09-04T11:39:52.777Z,1.60
2022-09-04T11:43:11.234Z,2.20
2022-09-04T11:46:21.350Z,1.63
2022-09-04T11:49:42.929Z,1.73
2022-09-04T11:52:55.552Z,1.90
2022-09-04T11:56:52.362Z,1.60
2022-09-04T12:00:03.393Z,1.95
2022-09-04T12:03:27.738Z,1.40
2022-09-04T12:06:40.388Z,1.80
2022-09-04T12:09:57.747Z,1.48
2022-09-04T12:13:14.693Z,1.60
2022-09-04T12:16:42.136Z,1.48
2022-09-04T12:20:13.943Z,1.77
2022-09-04T12:23:26.496Z,1.80
2022-09-04T12:26:51.263Z,1.40
2022-09-04T12:30:12.534Z,1.10
2022-09-04T12:33:35.199Z,1.73
2022-09-04T12:36:53.151Z,1.60
2022-09-04T12:40:13.477Z,1.40
2022-09-04T12:43:25.979Z,1.23
2022-09-04T12:51:36.377Z,1.58
2022-09-04T12:55:00.116Z,1.40
2022-09-04T12:58:13.389Z,1.48
2022-09-04T13:01:23.190Z,1.38
2022-09-04T13:04:31.087Z,1.40
2022-09-04T13:07:40.900Z,1.42
2022-09-04T13:10:49.322Z,1.30
2022-09-04T13:13:59.413Z,1.50
2022-09-04T13:17:04.981Z,1.45
2022-09-04T13:20:12.994Z,1.13
2022-09-04T13:23:25.981Z,1.60
2022-09-04T13:26:46.036Z,1.23
2022-09-04T13:30:02.876Z,1.42
2022-09-04T13:33:21.261Z,1.10
2022-09-04T13:36:28.159Z,1.45
2022-09-04T13:39:40.038Z,1.48
2022-09-04T13:42:54.147Z,1.38
2022-09-04T13:45:59.664Z,1.40
2022-09-04T13:49:05.316Z,1.35
2022-09-04T13:52:12.096Z,1.50
2022-09-04T13:55:18.692Z,1.08
2022-09-04T13:58:22.401Z,1.98
2022-09-04T14:01:29.861Z,1.10
2022-09-04T14:04:35.416Z,1.05
2022-09-04T14:07:44.276Z,1.42
2022-09-04T14:11:02.773Z,1.60
2022-09-04T14:14:15.050Z,1.30
2022-09-04T14:17:26.858Z,1.30
2022-09-04T14:20:33.987Z,1.10
2022-09-04T14:23:41.126Z,1.35
2022-09-04T14:26:50.223Z,1.10
2022-09-04T14:30:01.432Z,1.20
2022-09-04T14:33:21.633Z,1.15
2022-09-04T14:36:28.953Z,1.40
2022-09-04T14:39:37.292Z,1.60
2022-09-04T14:42:45.660Z,1.25
2022-09-04T14:46:06.728Z,1.13
2022-09-04T14:49:14.334Z,1.13
2022-09-04T14:52:19.701Z,1.20
2022-09-04T14:59:36.405Z,1.20
2022-09-04T15:02:42.846Z,1.27
2022-09-04T15:05:56.949Z,1.17
2022-09-04T15:09:18.158Z,1.20
2022-09-04T15:12:29.152Z,1.05
2022-09-04T15:15:33.844Z,1.10
2022-09-04T15:18:43.679Z,1.20
2022-09-04T15:21:51.207Z,1.30
2022-09-04T15:24:57.184Z,1.33
2022-09-04T15:28:02.392Z,1.17
2022-09-04T15:31:13.276Z,1.10
2022-09-04T15:34:21.329Z,1.20
2022-09-04T15:37:27.345Z,1.27
2022-09-04T15:40:32.861Z,0.90
2022-09-04T15:43:39.372Z,1.10
2022-09-04T15:46:49.950Z,1.40
2022-09-04T15:49:54.966Z,0.98
2022-09-04T15:53:02.079Z,2.70
2022-09-04T15:56:10.293Z,1.17
2022-09-04T15:59:15.019Z,1.17
2022-09-04T16:02:21.715Z,1.10
2022-09-04T16:05:28.259Z,1.15
2022-09-04T16:08:40.835Z,1.10
2022-09-04T16:11:46.770Z,1.52
2022-09-04T16:14:50.553Z,1.33
2022-09-04T16:17:54.911Z,1.30
2022-09-04T16:20:59.062Z,1.20
2022-09-04T16:24:09.037Z,1.13
2022-09-04T16:27:14.479Z,1.02
2022-09-04T16:30:30.062Z,1.42
2022-09-04T16:33:34.180Z,1.25
2022-09-04T16:36:40.629Z,1.50
2022-09-04T16:39:49.426Z,1.48
2022-09-04T16:55:11.349Z,1.33
2022-09-04T16:58:19.592Z,1.27
2022-09-04T17:01:25.701Z,1.65
2022-09-04T17:04:39.149Z,1.50
2022-09-04T17:07:53.715Z,1.38
2022-09-04T17:11:10.449Z,1.25
2022-09-04T17:14:16.919Z,1.60
2022-09-04T17:17:30.075Z,1.70
2022-09-04T17:29:04.279Z,1.45
2022-09-04T17:29:16.214Z,1.65
2022-09-04T17:31:32.092Z,1.80
2022-09-04T17:40:35.593Z,1.90
2022-09-04T17:40:54.606Z,2.00
2022-09-04T17:41:59.426Z,1.80
2022-09-04T17:45:13.606Z,2.25
2022-09-04T17:48:20.304Z,2.22
2022-09-04T17:51:24.167Z,2.55
2022-09-04T17:54:28.761Z,1.77
2022-09-04T17:57:37.273Z,1.92
2022-09-04T18:00:51.900Z,1.60
2022-09-04T18:04:20.675Z,1.73
2022-09-04T18:08:07.428Z,1.60
2022-09-04T18:10:54.085Z,1.98
2022-09-04T18:14:02.094Z,1.85
2022-09-04T18:17:11.827Z,1.80
2022-09-04T18:20:18.222Z,1.70
2022-09-04T18:23:23.336Z,1.67
2022-09-04T18:26:40.182Z,1.83
2022-09-04T18:31:25.746Z,1.67
2022-09-04T18:37:18.589Z,1.63
2022-09-04T18:37:26.391Z,1.55
2022-09-04T18:40:11.565Z,1.40
2022-09-04T18:50:24.714Z,1.58
2022-09-04T18:50:51.992Z,1.90
2022-09-04T18:50:53.391Z,1.90
2022-09-04T18:53:28.248Z,1.95
2022-09-04T18:56:32.695Z,1.67
2022-09-04T18:59:37.482Z,1.95
2022-09-04T19:02:52.839Z,1.98
2022-09-04T19:06:00.100Z,1.55
2022-09-04T19:09:08.925Z,2.08
2022-09-04T19:12:12.607Z,2.00
2022-09-04T19:15:36.343Z,2.10
2022-09-04T19:18:46.260Z,1.83
2022-09-04T19:21:57.704Z,1.80
2022-09-04T19:25:04.775Z,1.50
2022-09-04T19:28:11.045Z,2.05
2022-09-04T19:31:17.476Z,2.10
2022-09-04T19:34:22.016Z,1.83
2022-09-04T19:39:27.208Z,2.20
2022-09-04T19:46:19.779Z,1.75
2022-09-04T19:46:25.675Z,1.45
2022-09-04T19:47:54.985Z,1.92
2022-09-04T19:53:20.078Z,1.70
2022-09-04T19:54:31.307Z,1.73
2022-09-04T19:57:38.458Z,1.60
2022-09-04T20:00:46.357Z,1.50
2022-09-04T20:04:18.638Z,1.90
2022-09-04T20:07:25.847Z,1.95
2022-09-04T20:10:34.327Z,2.42
2022-09-04T20:13:41.528Z,1.85
2022-09-04T20:16:48.871Z,1.73
2022-09-04T20:19:53.403Z,1.95
2022-09-04T20:22:58.582Z,1.73
2022-09-04T20:26:04.535Z,2.10
2022-09-04T20:29:11.515Z,2.00
2022-09-04T20:32:16.664Z,1.88
2022-09-04T20:35:32.671Z,1.88
2022-09-04T20:38:42.925Z,1.88
2022-09-04T20:41:49.323Z,1.50
2022-09-04T20:46:13.084Z,1.75
2022-09-04T20:52:48.681Z,1.55
2022-09-04T20:52:52.612Z,1.85
2022-09-04T20:55:19.526Z,1.67
2022-09-04T21:03:13.458Z,1.60
2022-09-04T21:03:27.967Z,1.42
2022-09-04T21:06:38.292Z,1.65
2022-09-04T21:09:54.960Z,1.52
2022-09-04T21:13:14.193Z,1.30
2022-09-04T21:16:24.121Z,1.40
2022-09-04T21:19:34.735Z,1.50
2022-09-04T21:22:43.089Z,1.42
2022-09-04T21:30:09.776Z,2.42
2022-09-04T21:33:32.267Z,1.20
2022-09-04T21:36:41.251Z,1.30
2022-09-04T21:39:58.160Z,1.55
2022-09-04T21:43:13.182Z,1.38
2022-09-04T21:46:24.775Z,1.10
2022-09-04T21:49:41.946Z,1.20
2022-09-04T21:53:02.611Z,1.17
2022-09-04T22:01:22.285Z,1.30
2022-09-04T22:02:45.493Z,1.00
2022-09-04T22:03:22.240Z,1.00
2022-09-04T22:07:05.278Z,1.20
2022-09-04T22:13:37.741Z,1.00
2022-09-04T22:13:48.138Z,1.23
2022-09-04T22:17:04.103Z,1.20
2022-09-04T22:20:39.548Z,1.20
2022-09-04T22:24:00.981Z,1.13
2022-09-04T22:27:12.901Z,1.10
2022-09-04T22:30:17.869Z,1.23
2022-09-04T22:33:48.318Z,1.10
2022-09-04T22:37:27.184Z,1.70
2022-09-04T22:40:35.725Z,1.17
2022-09-04T22:43:50.486Z,1.20
2022-09-04T22:47:22.221Z,1.10
2022-09-04T22:50:50.240Z,0.98
2022-09-04T22:54:02.504Z,1.20
2022-09-04T22:57:08.529Z,1.17
2022-09-04T23:00:12.720Z,1.02
2022-09-04T23:03:26.569Z,0.95
2022-09-04T23:11:32.074Z,0.98
2022-09-04T23:13:46.986Z,1.00
2022-09-04T23:14:06.786Z,1.30
2022-09-04T23:17:19.406Z,0.93
2022-09-04T23:26:32.847Z,1.10
2022-09-04T23:26:52.827Z,0.98
2022-09-04T23:27:42.443Z,1.10
2022-09-04T23:30:49.628Z,1.17
2022-09-04T23:33:57.938Z,1.10
2022-09-04T23:37:19.396Z,0.95
2022-09-04T23:40:39.031Z,1.38
2022-09-04T23:44:00.049Z,1.25
2022-09-04T23:47:48.025Z,1.17
2022-09-04T23:50:51.836Z,1.50
2022-09-04T23:54:02.954Z,1.30
2022-09-04T23:57:28.892Z,1.20
